THY066 LTFM-WADD
Flight info
| Callsign | THY066 |
|---|---|
| Flight time | N/A |
| Altitude | 35000 |
| Route | EKAWE UT643 GAKSU UT310 SIN DCT REBLO DCT MATAL T916 SUBUT T923 ERLEV M11 RODAR A909 LEMOD/N0487F370 N644 REGET G325 HANGU L509 NONIB T400 SULOM M890 LKN R460 CEA/N0488F390 L507 BKK R201 BUT Y11 PIDEL M904 ENREP/N0483F400 L642 VMR/N0484F390 B338 PU20/N0482F410 B338 VTK M635 UDONO |
| Aircraft | A359/H-SDE2E3GHIJ3J4J5LM1ORWXY/LB1D1 |
Departure
| Time | 2026-05-03 22:00 |
|---|---|
| Airport | İstanbul Airport (LTFM) |
Arrival
| Time | N/A |
|---|---|
| Airport | Denpasar I Gusti Ngurah Rai International Airport (WADD) |
| Time | Latitude | Longitude | Altitude | Speed | Heading |
|---|---|---|---|---|---|
| 2026-05-03 21:44 | 41.26742 | 28.74119 | 335 ft | 0 kts | 91° |
| 2026-05-03 21:51 | 41.26742 | 28.74098 | 335 ft | 4 kts | 84° |
| 2026-05-03 21:51 | 41.26736 | 28.74063 | 335 ft | 4 kts | 66° |
| 2026-05-03 21:51 | 41.26722 | 28.74034 | 335 ft | 4 kts | 39° |
| 2026-05-03 21:51 | 41.26702 | 28.74021 | 335 ft | 2 kts | 359° |
| 2026-05-03 21:52 | 41.26697 | 28.74021 | 335 ft | 0 kts | 359° |
| 2026-05-03 21:54 | 41.26704 | 28.74021 | 337 ft | 3 kts | 358° |
| 2026-05-03 21:54 | 41.26750 | 28.74020 | 339 ft | 10 kts | 359° |
| 2026-05-03 21:55 | 41.26832 | 28.74019 | 338 ft | 12 kts | 359° |
| 2026-05-03 21:55 | 41.26913 | 28.74016 | 337 ft | 11 kts | 354° |
| 2026-05-03 21:55 | 41.26964 | 28.73957 | 337 ft | 10 kts | 282° |
| 2026-05-03 21:55 | 41.26964 | 28.73855 | 340 ft | 12 kts | 269° |
| 2026-05-03 21:56 | 41.26962 | 28.73729 | 338 ft | 15 kts | 269° |
| 2026-05-03 21:56 | 41.26959 | 28.73578 | 336 ft | 17 kts | 269° |
| 2026-05-03 21:56 | 41.26957 | 28.73406 | 335 ft | 19 kts | 269° |
| 2026-05-03 21:56 | 41.26955 | 28.73229 | 337 ft | 17 kts | 269° |
| 2026-05-03 21:57 | 41.26917 | 28.73105 | 335 ft | 15 kts | 199° |
| 2026-05-03 21:57 | 41.26815 | 28.73107 | 335 ft | 15 kts | 178° |
| 2026-05-03 21:57 | 41.26710 | 28.73109 | 339 ft | 15 kts | 179° |
| 2026-05-03 21:57 | 41.26602 | 28.73112 | 336 ft | 16 kts | 179° |
| 2026-05-03 21:58 | 41.26490 | 28.73115 | 339 ft | 16 kts | 179° |
| 2026-05-03 21:58 | 41.26375 | 28.73117 | 339 ft | 17 kts | 179° |
| 2026-05-03 21:58 | 41.26264 | 28.73120 | 335 ft | 14 kts | 179° |
| 2026-05-03 21:58 | 41.26213 | 28.73046 | 335 ft | 12 kts | 264° |
| 2026-05-03 21:59 | 41.26215 | 28.72933 | 337 ft | 13 kts | 271° |
| 2026-05-03 21:59 | 41.26215 | 28.72816 | 337 ft | 13 kts | 279° |
| 2026-05-03 21:59 | 41.26277 | 28.72772 | 335 ft | 10 kts | 359° |
| 2026-05-03 21:59 | 41.26380 | 28.72771 | 336 ft | 33 kts | 359° |
| 2026-05-03 22:00 | 41.26812 | 28.72766 | 339 ft | 89 kts | 358° |
| 2026-05-03 22:00 | 41.27603 | 28.72748 | 340 ft | 137 kts | 359° |
| 2026-05-03 22:00 | 41.28670 | 28.72720 | 619 ft | 155 kts | 1° |
| 2026-05-03 22:00 | 41.29777 | 28.72697 | 1155 ft | 160 kts | 0° |
| 2026-05-03 22:01 | 41.30912 | 28.72688 | 1726 ft | 172 kts | 1° |
| 2026-05-03 22:01 | 41.32164 | 28.72666 | 1928 ft | 192 kts | 0° |
| 2026-05-03 22:01 | 41.33567 | 28.72639 | 2190 ft | 211 kts | 0° |
| 2026-05-03 22:01 | 41.35077 | 28.72607 | 2616 ft | 220 kts | 1° |
| 2026-05-03 22:02 | 41.36621 | 28.72572 | 3173 ft | 225 kts | 2° |
| 2026-05-03 22:02 | 41.38204 | 28.72383 | 3650 ft | 234 kts | 351° |
| 2026-05-03 22:02 | 41.39751 | 28.71621 | 4202 ft | 240 kts | 340° |
| 2026-05-03 22:02 | 41.41274 | 28.70652 | 4727 ft | 245 kts | 339° |
| 2026-05-03 22:03 | 41.42814 | 28.69650 | 5266 ft | 248 kts | 339° |
| 2026-05-03 22:03 | 41.44374 | 28.68640 | 5843 ft | 250 kts | 339° |
| 2026-05-03 22:03 | 41.45945 | 28.67627 | 6467 ft | 251 kts | 340° |
| 2026-05-03 22:03 | 41.47529 | 28.66610 | 7005 ft | 255 kts | 339° |
| 2026-05-03 22:04 | 41.49138 | 28.65579 | 7565 ft | 259 kts | 339° |
| 2026-05-03 22:04 | 41.50773 | 28.64531 | 8154 ft | 261 kts | 339° |
| 2026-05-03 22:04 | 41.52415 | 28.63479 | 8760 ft | 264 kts | 339° |
| 2026-05-03 22:04 | 41.54100 | 28.62452 | 9310 ft | 267 kts | 345° |
| 2026-05-03 22:05 | 41.55880 | 28.61977 | 9926 ft | 259 kts | 4° |
| 2026-05-03 22:05 | 41.57659 | 28.62407 | 10259 ft | 266 kts | 25° |
| 2026-05-03 22:05 | 41.59215 | 28.63819 | 10437 ft | 281 kts | 47° |
| 2026-05-03 22:05 | 41.60412 | 28.65969 | 10693 ft | 296 kts | 56° |
| 2026-05-03 22:06 | 41.61538 | 28.68354 | 10921 ft | 311 kts | 57° |
| 2026-05-03 22:06 | 41.62716 | 28.70862 | 11129 ft | 326 kts | 56° |
| 2026-05-03 22:06 | 41.63948 | 28.73461 | 11541 ft | 333 kts | 56° |
| 2026-05-03 22:06 | 41.65201 | 28.76088 | 12063 ft | 338 kts | 57° |
| 2026-05-03 22:07 | 41.66480 | 28.78762 | 12521 ft | 344 kts | 56° |
| 2026-05-03 22:07 | 41.67772 | 28.81460 | 13170 ft | 343 kts | 57° |
| 2026-05-03 22:07 | 41.69067 | 28.84164 | 13678 ft | 349 kts | 57° |
| 2026-05-03 22:07 | 41.70385 | 28.86917 | 14105 ft | 353 kts | 57° |
| 2026-05-03 22:08 | 41.71706 | 28.89676 | 14705 ft | 352 kts | 57° |
| 2026-05-03 22:08 | 41.73022 | 28.92471 | 15094 ft | 358 kts | 59° |
| 2026-05-03 22:08 | 41.74165 | 28.95446 | 15630 ft | 359 kts | 64° |
| 2026-05-03 22:08 | 41.75223 | 28.98479 | 16143 ft | 361 kts | 64° |
| 2026-05-03 22:09 | 41.76283 | 29.01551 | 16551 ft | 365 kts | 64° |
| 2026-05-03 22:09 | 41.77348 | 29.04642 | 17130 ft | 365 kts | 64° |
| 2026-05-03 22:09 | 41.78418 | 29.07747 | 17567 ft | 370 kts | 65° |
| 2026-05-03 22:10 | 41.80586 | 29.14040 | 18552 ft | 374 kts | 65° |
| 2026-05-03 22:10 | 41.81681 | 29.17223 | 18941 ft | 378 kts | 65° |
| 2026-05-03 22:10 | 41.82784 | 29.20430 | 19421 ft | 379 kts | 65° |
| 2026-05-03 22:10 | 41.83892 | 29.23659 | 19822 ft | 384 kts | 65° |
| 2026-05-03 22:11 | 41.85012 | 29.26923 | 20245 ft | 386 kts | 65° |
| 2026-05-03 22:11 | 41.86134 | 29.30199 | 20752 ft | 388 kts | 65° |
| 2026-05-03 22:11 | 41.87253 | 29.33467 | 21074 ft | 393 kts | 66° |
| 2026-05-03 22:11 | 41.88394 | 29.36805 | 21567 ft | 394 kts | 66° |
| 2026-05-03 22:12 | 41.89543 | 29.40172 | 21832 ft | 402 kts | 66° |
| 2026-05-03 22:12 | 41.90876 | 29.43490 | 22225 ft | 405 kts | 58° |
| 2026-05-03 22:12 | 41.92609 | 29.46493 | 22684 ft | 410 kts | 52° |
| 2026-05-03 22:12 | 41.94496 | 29.49409 | 22934 ft | 416 kts | 51° |
| 2026-05-03 22:13 | 41.96413 | 29.52319 | 23464 ft | 417 kts | 52° |
| 2026-05-03 22:13 | 41.98346 | 29.55264 | 23691 ft | 423 kts | 52° |
| 2026-05-03 22:13 | 42.00294 | 29.58240 | 24074 ft | 424 kts | 51° |
| 2026-05-03 22:13 | 42.02217 | 29.61262 | 24367 ft | 428 kts | 55° |
| 2026-05-03 22:14 | 42.03852 | 29.64595 | 24713 ft | 425 kts | 65° |
| 2026-05-03 22:14 | 42.05002 | 29.68237 | 25074 ft | 423 kts | 75° |
| 2026-05-03 22:14 | 42.05613 | 29.72112 | 25349 ft | 423 kts | 86° |
| 2026-05-03 22:14 | 42.05670 | 29.76047 | 25806 ft | 421 kts | 95° |
| 2026-05-03 22:15 | 42.05437 | 29.79981 | 26087 ft | 424 kts | 97° |
| 2026-05-03 22:15 | 42.05149 | 29.83931 | 26473 ft | 424 kts | 97° |
| 2026-05-03 22:15 | 42.04860 | 29.87882 | 26861 ft | 426 kts | 97° |
| 2026-05-03 22:15 | 42.04572 | 29.91857 | 27183 ft | 428 kts | 97° |
| 2026-05-03 22:16 | 42.04286 | 29.95839 | 27560 ft | 429 kts | 97° |
| 2026-05-03 22:16 | 42.04000 | 29.99841 | 27961 ft | 430 kts | 97° |
| 2026-05-03 22:16 | 42.03714 | 30.03847 | 28316 ft | 431 kts | 97° |
| 2026-05-03 22:16 | 42.03306 | 30.07832 | 28649 ft | 431 kts | 103° |
| 2026-05-03 22:17 | 42.02503 | 30.11713 | 28936 ft | 432 kts | 111° |
| 2026-05-03 22:17 | 42.01244 | 30.15375 | 29241 ft | 432 kts | 120° |
| 2026-05-03 22:17 | 41.99613 | 30.18764 | 29627 ft | 432 kts | 124° |
| 2026-05-03 22:17 | 41.97864 | 30.22043 | 30013 ft | 432 kts | 126° |
| 2026-05-03 22:18 | 41.96067 | 30.25278 | 30266 ft | 433 kts | 126° |
| 2026-05-03 22:18 | 41.94244 | 30.28511 | 30478 ft | 435 kts | 127° |
| 2026-05-03 22:18 | 41.92412 | 30.31754 | 30673 ft | 437 kts | 127° |
| 2026-05-03 22:18 | 41.90580 | 30.35013 | 30859 ft | 438 kts | 127° |
| 2026-05-03 22:19 | 41.88746 | 30.38291 | 31068 ft | 440 kts | 127° |
| 2026-05-03 22:19 | 41.86914 | 30.41578 | 31260 ft | 441 kts | 127° |
| 2026-05-03 22:19 | 41.85077 | 30.44878 | 31493 ft | 441 kts | 127° |
| 2026-05-03 22:19 | 41.83244 | 30.48173 | 31789 ft | 440 kts | 127° |
| 2026-05-03 22:20 | 41.81439 | 30.51453 | 32253 ft | 434 kts | 125° |
| 2026-05-03 22:20 | 41.79852 | 30.54879 | 32670 ft | 431 kts | 120° |
| 2026-05-03 22:20 | 41.78590 | 30.58525 | 32887 ft | 433 kts | 113° |
| 2026-05-03 22:20 | 41.77706 | 30.62395 | 33066 ft | 437 kts | 105° |
| 2026-05-03 22:21 | 41.77247 | 30.66378 | 33252 ft | 441 kts | 98° |
| 2026-05-03 22:21 | 41.77227 | 30.70502 | 33450 ft | 446 kts | 90° |
| 2026-05-03 22:21 | 41.77662 | 30.74633 | 33645 ft | 451 kts | 83° |
| 2026-05-03 22:21 | 41.78360 | 30.78736 | 33835 ft | 453 kts | 82° |
| 2026-05-03 22:22 | 41.79133 | 30.82833 | 33993 ft | 453 kts | 81° |
| 2026-05-03 22:22 | 41.79933 | 30.86915 | 34192 ft | 452 kts | 81° |
| 2026-05-03 22:22 | 41.80737 | 30.90993 | 34275 ft | 454 kts | 82° |
| 2026-05-03 22:23 | 41.82322 | 30.99201 | 34463 ft | 455 kts | 82° |
| 2026-05-03 22:23 | 41.83877 | 31.07443 | 34666 ft | 457 kts | 82° |
| 2026-05-03 22:23 | 41.84669 | 31.11575 | 34776 ft | 458 kts | 81° |
| 2026-05-03 22:24 | 41.85528 | 31.15698 | 34846 ft | 460 kts | 80° |
| 2026-05-03 22:24 | 41.87339 | 31.24008 | 34870 ft | 466 kts | 79° |
| 2026-05-03 22:25 | 41.89157 | 31.32370 | 34907 ft | 466 kts | 80° |
| 2026-05-03 22:25 | 41.90937 | 31.40708 | 34908 ft | 463 kts | 80° |
| 2026-05-03 22:26 | 41.92690 | 31.49023 | 34901 ft | 462 kts | 81° |
| 2026-05-03 22:26 | 41.94429 | 31.57326 | 34900 ft | 462 kts | 81° |
| 2026-05-03 22:27 | 41.96169 | 31.65633 | 34883 ft | 462 kts | 81° |
| 2026-05-03 22:27 | 41.97884 | 31.73876 | 34895 ft | 461 kts | 81° |
| 2026-05-03 22:28 | 41.99602 | 31.82172 | 34895 ft | 460 kts | 81° |
| 2026-05-03 22:28 | 42.01315 | 31.90463 | 34878 ft | 460 kts | 81° |
| 2026-05-03 22:29 | 42.03028 | 31.98753 | 34889 ft | 460 kts | 81° |
| 2026-05-03 22:29 | 42.04729 | 32.07038 | 34889 ft | 459 kts | 81° |
| 2026-05-03 22:30 | 42.06424 | 32.15329 | 34885 ft | 459 kts | 81° |
| 2026-05-03 22:30 | 42.08114 | 32.23618 | 34887 ft | 459 kts | 81° |
| 2026-05-03 22:31 | 42.09825 | 32.31904 | 34888 ft | 460 kts | 80° |
| 2026-05-03 22:31 | 42.11730 | 32.40147 | 34881 ft | 462 kts | 79° |
| 2026-05-03 22:32 | 42.13674 | 32.48385 | 34881 ft | 461 kts | 79° |
| 2026-05-03 22:32 | 42.15579 | 32.56620 | 34881 ft | 460 kts | 80° |
| 2026-05-03 22:33 | 42.16658 | 32.64967 | 34878 ft | 448 kts | 92° |
| 2026-05-03 22:33 | 42.16959 | 32.73332 | 34876 ft | 446 kts | 94° |
| 2026-05-03 22:34 | 42.17131 | 32.81634 | 34876 ft | 446 kts | 94° |
| 2026-05-03 22:34 | 42.17292 | 32.89985 | 34876 ft | 446 kts | 94° |
| 2026-05-03 22:35 | 42.17463 | 32.98351 | 34885 ft | 447 kts | 94° |
| 2026-05-03 22:35 | 42.17636 | 33.06726 | 34874 ft | 447 kts | 94° |
| 2026-05-03 22:36 | 42.17806 | 33.15108 | 34873 ft | 447 kts | 94° |
| 2026-05-03 22:36 | 42.17969 | 33.23480 | 34884 ft | 447 kts | 94° |
| 2026-05-03 22:37 | 42.18125 | 33.31859 | 34882 ft | 447 kts | 94° |
| 2026-05-03 22:37 | 42.18275 | 33.40234 | 34875 ft | 447 kts | 94° |
| 2026-05-03 22:38 | 42.18419 | 33.48609 | 34867 ft | 447 kts | 94° |
| 2026-05-03 22:38 | 42.18534 | 33.55571 | 34863 ft | 447 kts | 94° |
| 2026-05-03 22:39 | 42.18666 | 33.63967 | 34864 ft | 448 kts | 94° |
| 2026-05-03 22:39 | 42.18793 | 33.72366 | 34870 ft | 448 kts | 94° |
| 2026-05-03 22:40 | 42.18811 | 33.80748 | 34858 ft | 444 kts | 99° |
| 2026-05-03 22:40 | 42.18013 | 33.88954 | 34866 ft | 441 kts | 103° |
| 2026-05-03 22:41 | 42.17015 | 33.97099 | 34868 ft | 440 kts | 104° |
| 2026-05-03 22:41 | 42.15980 | 34.05228 | 34867 ft | 440 kts | 104° |
| 2026-05-03 22:42 | 42.14948 | 34.13358 | 34862 ft | 440 kts | 104° |
| 2026-05-03 22:42 | 42.13920 | 34.21488 | 34864 ft | 440 kts | 104° |
| 2026-05-03 22:43 | 42.12889 | 34.29616 | 34862 ft | 440 kts | 104° |
| 2026-05-03 22:43 | 42.11850 | 34.37757 | 34859 ft | 442 kts | 104° |
| 2026-05-03 22:44 | 42.10801 | 34.45913 | 34859 ft | 442 kts | 104° |
| 2026-05-03 22:44 | 42.09689 | 34.54053 | 34853 ft | 442 kts | 105° |
| 2026-05-03 22:45 | 42.08543 | 34.62192 | 34857 ft | 442 kts | 105° |
| 2026-05-03 22:45 | 42.07408 | 34.70273 | 34853 ft | 442 kts | 105° |
| 2026-05-03 22:46 | 42.06267 | 34.78413 | 34850 ft | 442 kts | 105° |
| 2026-05-03 22:46 | 42.05124 | 34.86546 | 34843 ft | 443 kts | 105° |
| 2026-05-03 22:47 | 42.04019 | 34.94704 | 34842 ft | 444 kts | 104° |
| 2026-05-03 22:47 | 42.02934 | 35.02882 | 34840 ft | 444 kts | 104° |
| 2026-05-03 22:48 | 42.01868 | 35.11062 | 34836 ft | 445 kts | 103° |
| 2026-05-03 22:48 | 42.01053 | 35.19321 | 34837 ft | 446 kts | 101° |
| 2026-05-03 22:49 | 42.00296 | 35.27605 | 34817 ft | 446 kts | 101° |
| 2026-05-03 22:49 | 41.99497 | 35.35895 | 34829 ft | 448 kts | 102° |
| 2026-05-03 22:50 | 41.98664 | 35.44201 | 34829 ft | 448 kts | 102° |
| 2026-05-03 22:50 | 41.97817 | 35.52503 | 34822 ft | 448 kts | 102° |
| 2026-05-03 22:51 | 41.96966 | 35.60798 | 34819 ft | 449 kts | 102° |
| 2026-05-03 22:51 | 41.96107 | 35.69111 | 34817 ft | 449 kts | 102° |
| 2026-05-03 22:52 | 41.95244 | 35.77423 | 34815 ft | 449 kts | 102° |
| 2026-05-03 22:52 | 41.94374 | 35.85737 | 34812 ft | 449 kts | 102° |
| 2026-05-03 22:53 | 41.93498 | 35.94048 | 34799 ft | 449 kts | 102° |
| 2026-05-03 22:53 | 41.92615 | 36.02363 | 34815 ft | 450 kts | 102° |
| 2026-05-03 22:54 | 41.91725 | 36.10688 | 34792 ft | 450 kts | 102° |
| 2026-05-03 22:54 | 41.90830 | 36.18989 | 34812 ft | 454 kts | 102° |
| 2026-05-03 22:55 | 41.89920 | 36.27382 | 34811 ft | 455 kts | 102° |
| 2026-05-03 22:55 | 41.89004 | 36.35776 | 34810 ft | 454 kts | 102° |
| 2026-05-03 22:56 | 41.88082 | 36.44164 | 34815 ft | 454 kts | 102° |
| 2026-05-03 22:56 | 41.87154 | 36.52551 | 34815 ft | 454 kts | 102° |
| 2026-05-03 22:57 | 41.86219 | 36.60940 | 34810 ft | 455 kts | 102° |
| 2026-05-03 22:57 | 41.85278 | 36.69323 | 34807 ft | 454 kts | 102° |
| 2026-05-03 22:58 | 41.84332 | 36.77695 | 34808 ft | 454 kts | 102° |
| 2026-05-03 22:58 | 41.83380 | 36.86064 | 34810 ft | 454 kts | 103° |
| 2026-05-03 22:59 | 41.82422 | 36.94430 | 34802 ft | 454 kts | 103° |
| 2026-05-03 22:59 | 41.81449 | 37.02856 | 34808 ft | 460 kts | 103° |
| 2026-05-03 23:00 | 41.80463 | 37.11345 | 34811 ft | 461 kts | 103° |
| 2026-05-03 23:00 | 41.79482 | 37.19759 | 34816 ft | 460 kts | 103° |
| 2026-05-03 23:01 | 41.78488 | 37.28221 | 34810 ft | 460 kts | 103° |
| 2026-05-03 23:01 | 41.77487 | 37.36681 | 34810 ft | 460 kts | 103° |
| 2026-05-03 23:02 | 41.76480 | 37.45134 | 34808 ft | 459 kts | 103° |
| 2026-05-03 23:02 | 41.75469 | 37.53574 | 34810 ft | 459 kts | 103° |
| 2026-05-03 23:03 | 41.74451 | 37.62007 | 34804 ft | 459 kts | 103° |
| 2026-05-03 23:03 | 41.73428 | 37.70434 | 34805 ft | 459 kts | 103° |
| 2026-05-03 23:04 | 41.72397 | 37.78870 | 34808 ft | 461 kts | 103° |
| 2026-05-03 23:04 | 41.71346 | 37.87388 | 34807 ft | 467 kts | 103° |
| 2026-05-03 23:05 | 41.70287 | 37.95954 | 34799 ft | 466 kts | 103° |
| 2026-05-03 23:05 | 41.69224 | 38.04506 | 34797 ft | 466 kts | 103° |
| 2026-05-03 23:06 | 41.68155 | 38.13047 | 34784 ft | 466 kts | 103° |
| 2026-05-03 23:06 | 41.67076 | 38.21596 | 34802 ft | 467 kts | 103° |
| 2026-05-03 23:07 | 41.65991 | 38.30154 | 34800 ft | 467 kts | 103° |
| 2026-05-03 23:07 | 41.64899 | 38.38706 | 34799 ft | 467 kts | 104° |
| 2026-05-03 23:08 | 41.63801 | 38.47256 | 34799 ft | 467 kts | 104° |
| 2026-05-03 23:08 | 41.62696 | 38.55807 | 34773 ft | 467 kts | 104° |
| 2026-05-03 23:09 | 41.61578 | 38.64396 | 34793 ft | 471 kts | 104° |
| 2026-05-03 23:09 | 41.60448 | 38.73025 | 34793 ft | 471 kts | 104° |
| 2026-05-03 23:10 | 41.59314 | 38.81649 | 34793 ft | 471 kts | 104° |
| 2026-05-03 23:10 | 41.58173 | 38.90270 | 34789 ft | 472 kts | 104° |
| 2026-05-03 23:11 | 41.57024 | 38.98898 | 34792 ft | 472 kts | 104° |
| 2026-05-03 23:11 | 41.55868 | 39.07525 | 34790 ft | 472 kts | 104° |
| 2026-05-03 23:12 | 41.54707 | 39.16145 | 34785 ft | 472 kts | 104° |
| 2026-05-03 23:12 | 41.53538 | 39.24768 | 34783 ft | 472 kts | 104° |
| 2026-05-03 23:13 | 41.52363 | 39.33383 | 34788 ft | 472 kts | 104° |
| 2026-05-03 23:13 | 41.51182 | 39.41994 | 34787 ft | 472 kts | 104° |
| 2026-05-03 23:14 | 41.50002 | 39.50546 | 34785 ft | 472 kts | 104° |
| 2026-05-03 23:14 | 41.48799 | 39.59211 | 34787 ft | 472 kts | 105° |
| 2026-05-03 23:15 | 41.47596 | 39.67831 | 34791 ft | 473 kts | 105° |
| 2026-05-03 23:15 | 41.46393 | 39.76403 | 34788 ft | 473 kts | 105° |
| 2026-05-03 23:16 | 41.45176 | 39.85027 | 34777 ft | 473 kts | 105° |
| 2026-05-03 23:16 | 41.43952 | 39.93647 | 34775 ft | 473 kts | 105° |
| 2026-05-03 23:17 | 41.42723 | 40.02258 | 34783 ft | 473 kts | 105° |
| 2026-05-03 23:17 | 41.41487 | 40.10866 | 34781 ft | 473 kts | 105° |
| 2026-05-03 23:18 | 41.40243 | 40.19483 | 34782 ft | 475 kts | 105° |
| 2026-05-03 23:18 | 41.38987 | 40.28130 | 34771 ft | 476 kts | 105° |
| 2026-05-03 23:19 | 41.37718 | 40.36820 | 34779 ft | 479 kts | 105° |
| 2026-05-03 23:19 | 41.36440 | 40.45531 | 34781 ft | 479 kts | 105° |
| 2026-05-03 23:20 | 41.35157 | 40.54232 | 34779 ft | 479 kts | 105° |
| 2026-05-03 23:20 | 41.33867 | 40.62929 | 34762 ft | 479 kts | 105° |
| 2026-05-03 23:21 | 41.32565 | 40.71645 | 34783 ft | 482 kts | 105° |
| 2026-05-03 23:21 | 41.31255 | 40.80380 | 34779 ft | 482 kts | 105° |
| 2026-05-03 23:22 | 41.29277 | 40.93482 | 34780 ft | 482 kts | 106° |
| 2026-05-03 23:22 | 41.27948 | 41.02215 | 34779 ft | 482 kts | 105° |
| 2026-05-03 23:23 | 41.26612 | 41.10951 | 34776 ft | 482 kts | 105° |
| 2026-05-03 23:23 | 41.25270 | 41.19683 | 34779 ft | 482 kts | 105° |
| 2026-05-03 23:24 | 41.23921 | 41.28410 | 34793 ft | 482 kts | 105° |
| 2026-05-03 23:24 | 41.22568 | 41.37136 | 34787 ft | 483 kts | 105° |
| 2026-05-03 23:25 | 41.21432 | 41.44416 | 34792 ft | 485 kts | 105° |
| 2026-05-03 23:25 | 41.20056 | 41.53178 | 34794 ft | 485 kts | 105° |
| 2026-05-03 23:26 | 41.18673 | 41.61941 | 34788 ft | 485 kts | 105° |
| 2026-05-03 23:26 | 41.17285 | 41.70706 | 34780 ft | 486 kts | 105° |
| 2026-05-03 23:27 | 41.15877 | 41.79532 | 34790 ft | 492 kts | 105° |
| 2026-05-03 23:27 | 41.14449 | 41.88443 | 34801 ft | 494 kts | 105° |
| 2026-05-03 23:28 | 41.13019 | 41.97337 | 34811 ft | 492 kts | 105° |
| 2026-05-03 23:28 | 41.11581 | 42.06227 | 34806 ft | 494 kts | 106° |
| 2026-05-03 23:29 | 41.10126 | 42.15170 | 34819 ft | 497 kts | 105° |
| 2026-05-03 23:29 | 41.08662 | 42.24125 | 34839 ft | 497 kts | 106° |
| 2026-05-03 23:30 | 41.07192 | 42.33074 | 34836 ft | 497 kts | 106° |
| 2026-05-03 23:30 | 41.05715 | 42.42018 | 34846 ft | 497 kts | 106° |
| 2026-05-03 23:31 | 41.04237 | 42.50908 | 34861 ft | 497 kts | 106° |
| 2026-05-03 23:31 | 41.02742 | 42.59859 | 34861 ft | 498 kts | 106° |
| 2026-05-03 23:32 | 41.01239 | 42.68818 | 34867 ft | 499 kts | 106° |
| 2026-05-03 23:32 | 40.99729 | 42.77780 | 34869 ft | 499 kts | 107° |
| 2026-05-03 23:33 | 40.98209 | 42.86743 | 34874 ft | 499 kts | 107° |
| 2026-05-03 23:33 | 40.96684 | 42.95703 | 34876 ft | 499 kts | 107° |
| 2026-05-03 23:34 | 40.95150 | 43.04660 | 34874 ft | 499 kts | 107° |
| 2026-05-03 23:34 | 40.93609 | 43.13621 | 34899 ft | 500 kts | 107° |
| 2026-05-03 23:35 | 40.92057 | 43.22598 | 34889 ft | 501 kts | 107° |
| 2026-05-03 23:35 | 40.90499 | 43.31568 | 34901 ft | 501 kts | 107° |
| 2026-05-03 23:36 | 40.88933 | 43.40533 | 34911 ft | 501 kts | 107° |
| 2026-05-03 23:36 | 40.87360 | 43.49501 | 34920 ft | 501 kts | 107° |
| 2026-05-03 23:37 | 40.85781 | 43.58458 | 34920 ft | 501 kts | 107° |
| 2026-05-03 23:37 | 40.84278 | 43.67450 | 34925 ft | 504 kts | 102° |
| 2026-05-03 23:38 | 40.83712 | 43.76644 | 34912 ft | 507 kts | 97° |
| 2026-05-03 23:38 | 40.83395 | 43.85980 | 34922 ft | 510 kts | 96° |
| 2026-05-03 23:39 | 40.83113 | 43.95342 | 34917 ft | 510 kts | 96° |
| 2026-05-03 23:39 | 40.82810 | 44.04712 | 34938 ft | 511 kts | 96° |
| 2026-05-03 23:40 | 40.82485 | 44.14087 | 34934 ft | 511 kts | 96° |
| 2026-05-03 23:40 | 40.82148 | 44.23460 | 34939 ft | 512 kts | 96° |
| 2026-05-03 23:41 | 40.81803 | 44.32847 | 34944 ft | 512 kts | 96° |
| 2026-05-03 23:41 | 40.81452 | 44.42231 | 34945 ft | 512 kts | 96° |
| 2026-05-03 23:42 | 40.81094 | 44.51608 | 34941 ft | 511 kts | 96° |
| 2026-05-03 23:42 | 40.80734 | 44.60962 | 34932 ft | 510 kts | 96° |
| 2026-05-03 23:43 | 40.80361 | 44.70330 | 34944 ft | 513 kts | 96° |
| 2026-05-03 23:43 | 40.79975 | 44.79733 | 34942 ft | 513 kts | 96° |
| 2026-05-03 23:44 | 40.79584 | 44.89134 | 34948 ft | 513 kts | 96° |
| 2026-05-03 23:44 | 40.79186 | 44.98543 | 34941 ft | 513 kts | 97° |
| 2026-05-03 23:45 | 40.78783 | 45.07943 | 34949 ft | 514 kts | 97° |
| 2026-05-03 23:45 | 40.78371 | 45.17357 | 34943 ft | 514 kts | 97° |
| 2026-05-03 23:46 | 40.77948 | 45.26764 | 34952 ft | 514 kts | 97° |
| 2026-05-03 23:46 | 40.77519 | 45.36170 | 34945 ft | 514 kts | 97° |
| 2026-05-03 23:47 | 40.77086 | 45.45509 | 34945 ft | 514 kts | 97° |
| 2026-05-03 23:47 | 40.77384 | 45.55041 | 34949 ft | 520 kts | 86° |
| 2026-05-03 23:48 | 40.78295 | 45.64471 | 34947 ft | 522 kts | 85° |
| 2026-05-03 23:48 | 40.79302 | 45.73967 | 34953 ft | 522 kts | 85° |
| 2026-05-03 23:49 | 40.80298 | 45.83460 | 34961 ft | 522 kts | 85° |
| 2026-05-03 23:49 | 40.81269 | 45.92961 | 34957 ft | 522 kts | 85° |
| 2026-05-03 23:50 | 40.82071 | 46.00925 | 34955 ft | 522 kts | 85° |
| 2026-05-03 23:50 | 40.83173 | 46.11982 | 34956 ft | 524 kts | 85° |
| 2026-05-03 23:51 | 40.84116 | 46.21539 | 34952 ft | 525 kts | 85° |
| 2026-05-03 23:51 | 40.85055 | 46.31116 | 34959 ft | 527 kts | 85° |
| 2026-05-03 23:52 | 40.85989 | 46.40728 | 34970 ft | 528 kts | 85° |
| 2026-05-03 23:52 | 40.86916 | 46.50344 | 34965 ft | 528 kts | 85° |
| 2026-05-03 23:53 | 40.87834 | 46.59970 | 34974 ft | 528 kts | 85° |
| 2026-05-03 23:53 | 40.88745 | 46.69599 | 34971 ft | 529 kts | 85° |
| 2026-05-03 23:54 | 40.89626 | 46.79281 | 34973 ft | 531 kts | 88° |
| 2026-05-03 23:54 | 40.89444 | 46.88969 | 34978 ft | 526 kts | 97° |
| 2026-05-03 23:55 | 40.88789 | 46.98602 | 34981 ft | 526 kts | 99° |
| 2026-05-03 23:55 | 40.88053 | 47.08218 | 34975 ft | 526 kts | 99° |
| 2026-05-03 23:56 | 40.87317 | 47.17832 | 34983 ft | 527 kts | 98° |
| 2026-05-03 23:56 | 40.86585 | 47.27486 | 34976 ft | 529 kts | 98° |
| 2026-05-03 23:57 | 40.85852 | 47.37146 | 34991 ft | 529 kts | 98° |
| 2026-05-03 23:57 | 40.85111 | 47.46805 | 34987 ft | 528 kts | 98° |
| 2026-05-03 23:58 | 40.84388 | 47.56467 | 34978 ft | 529 kts | 97° |
| 2026-05-03 23:58 | 40.83810 | 47.66102 | 34991 ft | 529 kts | 96° |
| 2026-05-03 23:59 | 40.83250 | 47.75776 | 34994 ft | 528 kts | 96° |
| 2026-05-03 23:59 | 40.82659 | 47.85433 | 34969 ft | 527 kts | 97° |
| 2026-05-04 00:00 | 40.82046 | 47.95082 | 34962 ft | 528 kts | 97° |
| 2026-05-04 00:00 | 40.81421 | 48.04732 | 34963 ft | 528 kts | 97° |
| 2026-05-04 00:01 | 40.80789 | 48.14379 | 34953 ft | 526 kts | 97° |
| 2026-05-04 00:01 | 40.80155 | 48.23954 | 34956 ft | 522 kts | 97° |
| 2026-05-04 00:02 | 40.79516 | 48.33490 | 34947 ft | 522 kts | 97° |
| 2026-05-04 00:02 | 40.78868 | 48.43027 | 34948 ft | 522 kts | 97° |
| 2026-05-04 00:03 | 40.78210 | 48.52600 | 34951 ft | 525 kts | 97° |
| 2026-05-04 00:03 | 40.77542 | 48.62203 | 34968 ft | 526 kts | 97° |
| 2026-05-04 00:04 | 40.76863 | 48.71837 | 34970 ft | 529 kts | 97° |
| 2026-05-04 00:04 | 40.76173 | 48.81506 | 34973 ft | 530 kts | 97° |
| 2026-05-04 00:05 | 40.75475 | 48.91182 | 34987 ft | 532 kts | 98° |
| 2026-05-04 00:05 | 40.74765 | 49.00898 | 34989 ft | 532 kts | 98° |
| 2026-05-04 00:06 | 40.74053 | 49.10550 | 35006 ft | 532 kts | 98° |
| 2026-05-04 00:06 | 40.73322 | 49.20342 | 35007 ft | 534 kts | 98° |
| 2026-05-04 00:07 | 40.72511 | 49.30004 | 35009 ft | 533 kts | 101° |
| 2026-05-04 00:07 | 40.71333 | 49.39650 | 35016 ft | 533 kts | 103° |
| 2026-05-04 00:08 | 40.70095 | 49.49289 | 35022 ft | 534 kts | 102° |
| 2026-05-04 00:08 | 40.68899 | 49.58945 | 35016 ft | 534 kts | 102° |
| 2026-05-04 00:09 | 40.67722 | 49.68604 | 35019 ft | 534 kts | 102° |
| 2026-05-04 00:09 | 40.66541 | 49.78294 | 35000 ft | 536 kts | 102° |
| 2026-05-04 00:10 | 40.65350 | 49.87995 | 35005 ft | 536 kts | 102° |
| 2026-05-04 00:10 | 40.64151 | 49.97676 | 35001 ft | 536 kts | 102° |
| 2026-05-04 00:11 | 40.62942 | 50.07371 | 34992 ft | 536 kts | 102° |
| 2026-05-04 00:11 | 40.61721 | 50.17080 | 34998 ft | 538 kts | 102° |
| 2026-05-04 00:12 | 40.60491 | 50.26797 | 34999 ft | 539 kts | 102° |
| 2026-05-04 00:12 | 40.59252 | 50.36521 | 35004 ft | 539 kts | 102° |
| 2026-05-04 00:13 | 40.58006 | 50.46238 | 35004 ft | 539 kts | 102° |
| 2026-05-04 00:13 | 40.56749 | 50.55965 | 35017 ft | 539 kts | 102° |
| 2026-05-04 00:14 | 40.55485 | 50.65684 | 35018 ft | 539 kts | 102° |
| 2026-05-04 00:14 | 40.54427 | 50.73763 | 35018 ft | 539 kts | 102° |
| 2026-05-04 00:15 | 40.53149 | 50.83471 | 35005 ft | 539 kts | 102° |
| 2026-05-04 00:15 | 40.51860 | 50.93192 | 35021 ft | 540 kts | 102° |
| 2026-05-04 00:16 | 40.50853 | 51.02991 | 35021 ft | 542 kts | 98° |
| 2026-05-04 00:16 | 40.50050 | 51.12841 | 35021 ft | 542 kts | 98° |
| 2026-05-04 00:17 | 40.49209 | 51.22676 | 35027 ft | 542 kts | 98° |
| 2026-05-04 00:17 | 40.48313 | 51.32495 | 35018 ft | 541 kts | 99° |
| 2026-05-04 00:18 | 40.47390 | 51.42310 | 35020 ft | 541 kts | 99° |
| 2026-05-04 00:18 | 40.46237 | 51.51994 | 35019 ft | 539 kts | 105° |
| 2026-05-04 00:19 | 40.44556 | 51.61651 | 35017 ft | 539 kts | 106° |
| 2026-05-04 00:19 | 40.42806 | 51.71151 | 35015 ft | 540 kts | 106° |
| 2026-05-04 00:20 | 40.41028 | 51.80722 | 35014 ft | 540 kts | 106° |
| 2026-05-04 00:20 | 40.39252 | 51.90287 | 35016 ft | 539 kts | 106° |
| 2026-05-04 00:21 | 40.37476 | 51.99841 | 35013 ft | 539 kts | 106° |
| 2026-05-04 00:21 | 40.35693 | 52.09385 | 35010 ft | 539 kts | 106° |
| 2026-05-04 00:22 | 40.33902 | 52.18926 | 35010 ft | 539 kts | 106° |
| 2026-05-04 00:22 | 40.32102 | 52.28462 | 35009 ft | 539 kts | 107° |
| 2026-05-04 00:23 | 40.30295 | 52.37996 | 35002 ft | 539 kts | 107° |
| 2026-05-04 00:23 | 40.28478 | 52.47529 | 35002 ft | 539 kts | 107° |
| 2026-05-04 00:24 | 40.26655 | 52.57054 | 35002 ft | 539 kts | 107° |
| 2026-05-04 00:24 | 40.24828 | 52.66575 | 34994 ft | 539 kts | 107° |
| 2026-05-04 00:25 | 40.22994 | 52.76094 | 34991 ft | 540 kts | 107° |
| 2026-05-04 00:25 | 40.21146 | 52.85634 | 34990 ft | 541 kts | 107° |
| 2026-05-04 00:26 | 40.19290 | 52.95179 | 34989 ft | 541 kts | 107° |
| 2026-05-04 00:26 | 40.17431 | 53.04692 | 34986 ft | 539 kts | 107° |
| 2026-05-04 00:27 | 40.15564 | 53.14197 | 34985 ft | 540 kts | 107° |
| 2026-05-04 00:27 | 40.13689 | 53.23701 | 34980 ft | 540 kts | 107° |
| 2026-05-04 00:28 | 40.11806 | 53.33201 | 34982 ft | 540 kts | 107° |
| 2026-05-04 00:28 | 40.09927 | 53.42636 | 34977 ft | 540 kts | 107° |
| 2026-05-04 00:29 | 40.08027 | 53.52132 | 34979 ft | 541 kts | 107° |
| 2026-05-04 00:29 | 40.06119 | 53.61624 | 34985 ft | 540 kts | 107° |
| 2026-05-04 00:30 | 40.04206 | 53.71100 | 34988 ft | 540 kts | 107° |
| 2026-05-04 00:30 | 40.02284 | 53.80571 | 34991 ft | 540 kts | 107° |
| 2026-05-04 00:31 | 40.00352 | 53.90053 | 34990 ft | 541 kts | 107° |
| 2026-05-04 00:31 | 39.98411 | 53.99533 | 34998 ft | 541 kts | 107° |
| 2026-05-04 00:32 | 39.96462 | 54.09010 | 34999 ft | 541 kts | 107° |
| 2026-05-04 00:32 | 39.94507 | 54.18471 | 34995 ft | 540 kts | 107° |
| 2026-05-04 00:33 | 39.91560 | 54.32655 | 34997 ft | 541 kts | 107° |
| 2026-05-04 00:34 | 39.89588 | 54.42099 | 35002 ft | 541 kts | 107° |
| 2026-05-04 00:34 | 39.87601 | 54.51551 | 35002 ft | 542 kts | 107° |
| 2026-05-04 00:35 | 39.85590 | 54.61010 | 35003 ft | 543 kts | 107° |
| 2026-05-04 00:35 | 39.83566 | 54.70480 | 35001 ft | 542 kts | 107° |
| 2026-05-04 00:36 | 39.81561 | 54.79861 | 34990 ft | 542 kts | 107° |
| 2026-05-04 00:36 | 39.79543 | 54.89313 | 34994 ft | 543 kts | 107° |
| 2026-05-04 00:37 | 39.77514 | 54.98776 | 34992 ft | 543 kts | 107° |
| 2026-05-04 00:37 | 39.75477 | 55.08232 | 34995 ft | 543 kts | 107° |
| 2026-05-04 00:38 | 39.73432 | 55.17684 | 34997 ft | 544 kts | 107° |
| 2026-05-04 00:38 | 39.71377 | 55.27140 | 34991 ft | 543 kts | 107° |
| 2026-05-04 00:39 | 39.69324 | 55.36554 | 34985 ft | 541 kts | 107° |
| 2026-05-04 00:39 | 39.67263 | 55.45954 | 34986 ft | 541 kts | 107° |
| 2026-05-04 00:40 | 39.65183 | 55.55342 | 34983 ft | 541 kts | 107° |
| 2026-05-04 00:40 | 39.63095 | 55.64731 | 34984 ft | 541 kts | 107° |
| 2026-05-04 00:41 | 39.61004 | 55.74109 | 34973 ft | 541 kts | 107° |
| 2026-05-04 00:41 | 39.58908 | 55.83471 | 34977 ft | 539 kts | 107° |
| 2026-05-04 00:42 | 39.56820 | 55.92785 | 34985 ft | 538 kts | 107° |
| 2026-05-04 00:42 | 39.54743 | 56.02091 | 34978 ft | 538 kts | 107° |
| 2026-05-04 00:43 | 39.52658 | 56.11396 | 34975 ft | 538 kts | 107° |
| 2026-05-04 00:43 | 39.50564 | 56.20698 | 34974 ft | 539 kts | 107° |
| 2026-05-04 00:44 | 39.48456 | 56.30017 | 34981 ft | 540 kts | 107° |
| 2026-05-04 00:44 | 39.46345 | 56.39316 | 34977 ft | 537 kts | 107° |
| 2026-05-04 00:45 | 39.44232 | 56.48585 | 34979 ft | 537 kts | 107° |
| 2026-05-04 00:45 | 39.42111 | 56.57854 | 34985 ft | 538 kts | 107° |
| 2026-05-04 00:46 | 39.39981 | 56.67121 | 34980 ft | 537 kts | 107° |
| 2026-05-04 00:46 | 39.37862 | 56.76304 | 34978 ft | 536 kts | 107° |
| 2026-05-04 00:47 | 39.35697 | 56.85528 | 34978 ft | 536 kts | 108° |
| 2026-05-04 00:47 | 39.33343 | 56.94673 | 34978 ft | 536 kts | 109° |
| 2026-05-04 00:48 | 39.30948 | 57.03787 | 34973 ft | 536 kts | 109° |
| 2026-05-04 00:48 | 39.28573 | 57.12905 | 34981 ft | 536 kts | 109° |
| 2026-05-04 00:49 | 39.26213 | 57.22005 | 34971 ft | 535 kts | 109° |
| 2026-05-04 00:49 | 39.23848 | 57.31112 | 34971 ft | 536 kts | 109° |
| 2026-05-04 00:50 | 39.21473 | 57.40222 | 34982 ft | 535 kts | 109° |
| 2026-05-04 00:50 | 39.19099 | 57.49291 | 34974 ft | 533 kts | 109° |
| 2026-05-04 00:51 | 39.16717 | 57.58356 | 34968 ft | 535 kts | 109° |
| 2026-05-04 00:51 | 39.14321 | 57.67438 | 34980 ft | 535 kts | 109° |
| 2026-05-04 00:52 | 39.11925 | 57.76493 | 34971 ft | 533 kts | 109° |
| 2026-05-04 00:52 | 39.09524 | 57.85531 | 34959 ft | 533 kts | 109° |
| 2026-05-04 00:53 | 39.07111 | 57.94581 | 34979 ft | 535 kts | 109° |
| 2026-05-04 00:53 | 39.04693 | 58.03617 | 34974 ft | 533 kts | 109° |
| 2026-05-04 00:54 | 39.02289 | 58.12573 | 34970 ft | 533 kts | 109° |
| 2026-05-04 00:54 | 38.99862 | 58.21578 | 34980 ft | 534 kts | 109° |
| 2026-05-04 00:55 | 38.97423 | 58.30597 | 34974 ft | 534 kts | 109° |
| 2026-05-04 00:55 | 38.94981 | 58.39600 | 34974 ft | 534 kts | 109° |
| 2026-05-04 00:56 | 38.92531 | 58.48594 | 34983 ft | 533 kts | 109° |
| 2026-05-04 00:56 | 38.90074 | 58.57584 | 34971 ft | 534 kts | 109° |
| 2026-05-04 00:57 | 38.87213 | 58.66385 | 34973 ft | 535 kts | 116° |
| 2026-05-04 00:57 | 38.83926 | 58.74947 | 34978 ft | 535 kts | 117° |
| 2026-05-04 00:58 | 38.80568 | 58.83461 | 34980 ft | 535 kts | 117° |
| 2026-05-04 00:58 | 38.77206 | 58.91962 | 34980 ft | 535 kts | 117° |
| 2026-05-04 00:59 | 38.73845 | 59.00468 | 34979 ft | 535 kts | 117° |
| 2026-05-04 00:59 | 38.70485 | 59.08963 | 34983 ft | 534 kts | 117° |
| 2026-05-04 01:00 | 38.67124 | 59.17440 | 34989 ft | 535 kts | 117° |
| 2026-05-04 01:00 | 38.63771 | 59.25872 | 34988 ft | 535 kts | 117° |
| 2026-05-04 01:01 | 38.60366 | 59.34409 | 34998 ft | 535 kts | 117° |
| 2026-05-04 01:01 | 38.57058 | 59.42900 | 34986 ft | 533 kts | 115° |
| 2026-05-04 01:02 | 38.53931 | 59.51434 | 34996 ft | 535 kts | 115° |
| 2026-05-04 01:02 | 38.50780 | 59.60041 | 34993 ft | 535 kts | 115° |
| 2026-05-04 01:03 | 38.47602 | 59.68610 | 35000 ft | 533 kts | 115° |
| 2026-05-04 01:03 | 38.44410 | 59.77147 | 35002 ft | 534 kts | 115° |
| 2026-05-04 01:04 | 38.41204 | 59.85689 | 35007 ft | 534 kts | 115° |
| 2026-05-04 01:04 | 38.37989 | 59.94233 | 35009 ft | 534 kts | 115° |
| 2026-05-04 01:05 | 38.34775 | 60.02751 | 34995 ft | 533 kts | 115° |
| 2026-05-04 01:05 | 38.32099 | 60.09829 | 35015 ft | 534 kts | 115° |
| 2026-05-04 01:06 | 38.28867 | 60.18352 | 35025 ft | 535 kts | 115° |
| 2026-05-04 01:06 | 38.25628 | 60.26872 | 35015 ft | 535 kts | 116° |
| 2026-05-04 01:07 | 38.22383 | 60.35384 | 35008 ft | 535 kts | 116° |
| 2026-05-04 01:07 | 38.19128 | 60.43897 | 35023 ft | 535 kts | 116° |
| 2026-05-04 01:08 | 38.15866 | 60.52403 | 35021 ft | 535 kts | 116° |
| 2026-05-04 01:08 | 38.12601 | 60.60895 | 35021 ft | 535 kts | 116° |
| 2026-05-04 01:09 | 38.09328 | 60.69385 | 35021 ft | 536 kts | 116° |
| 2026-05-04 01:09 | 38.06043 | 60.77884 | 35031 ft | 536 kts | 115° |
| 2026-05-04 01:10 | 38.02753 | 60.86369 | 35020 ft | 536 kts | 116° |
| 2026-05-04 01:10 | 37.99460 | 60.94842 | 35026 ft | 536 kts | 116° |
| 2026-05-04 01:11 | 37.96155 | 61.03321 | 35031 ft | 537 kts | 116° |
| 2026-05-04 01:11 | 37.92840 | 61.11798 | 35032 ft | 537 kts | 116° |
| 2026-05-04 01:12 | 37.89523 | 61.20262 | 35031 ft | 537 kts | 116° |
| 2026-05-04 01:12 | 37.86201 | 61.28716 | 35022 ft | 536 kts | 116° |
| 2026-05-04 01:13 | 37.82868 | 61.37175 | 35034 ft | 537 kts | 116° |
| 2026-05-04 01:13 | 37.79532 | 61.45615 | 35036 ft | 536 kts | 116° |
| 2026-05-04 01:14 | 37.76218 | 61.53981 | 35038 ft | 536 kts | 116° |
| 2026-05-04 01:14 | 37.72874 | 61.62397 | 35040 ft | 536 kts | 116° |
| 2026-05-04 01:15 | 37.69515 | 61.70832 | 35044 ft | 538 kts | 116° |
| 2026-05-04 01:15 | 37.66146 | 61.79266 | 35042 ft | 538 kts | 116° |
| 2026-05-04 01:16 | 37.62732 | 61.87664 | 35071 ft | 538 kts | 120° |
| 2026-05-04 01:16 | 37.58525 | 61.95466 | 35079 ft | 537 kts | 126° |
| 2026-05-04 01:17 | 37.54107 | 62.03032 | 35071 ft | 535 kts | 127° |
| 2026-05-04 01:17 | 37.49659 | 62.10538 | 35063 ft | 535 kts | 127° |
| 2026-05-04 01:18 | 37.45216 | 62.18043 | 35052 ft | 535 kts | 127° |
| 2026-05-04 01:18 | 37.40759 | 62.25579 | 35050 ft | 537 kts | 127° |
| 2026-05-04 01:19 | 37.36315 | 62.33087 | 35046 ft | 534 kts | 127° |
| 2026-05-04 01:19 | 37.31878 | 62.40564 | 35048 ft | 534 kts | 127° |
| 2026-05-04 01:20 | 37.27426 | 62.48049 | 35050 ft | 536 kts | 127° |
| 2026-05-04 01:20 | 37.22955 | 62.55549 | 35057 ft | 536 kts | 127° |
| 2026-05-04 01:21 | 37.18501 | 62.63004 | 35049 ft | 532 kts | 127° |
| 2026-05-04 01:21 | 37.14054 | 62.70430 | 35048 ft | 534 kts | 127° |
| 2026-05-04 01:22 | 37.09577 | 62.77889 | 35055 ft | 536 kts | 127° |
| 2026-05-04 01:22 | 37.05091 | 62.85348 | 35060 ft | 536 kts | 127° |
| 2026-05-04 01:23 | 37.00622 | 62.92761 | 35045 ft | 532 kts | 127° |
| 2026-05-04 01:23 | 36.96152 | 63.00159 | 35059 ft | 535 kts | 127° |
| 2026-05-04 01:24 | 36.91660 | 63.07578 | 35064 ft | 536 kts | 127° |
| 2026-05-04 01:24 | 36.87159 | 63.14997 | 35072 ft | 535 kts | 127° |
| 2026-05-04 01:25 | 36.82675 | 63.22368 | 35069 ft | 533 kts | 127° |
| 2026-05-04 01:25 | 36.78185 | 63.29735 | 35072 ft | 534 kts | 127° |
| 2026-05-04 01:26 | 36.73688 | 63.37097 | 35075 ft | 534 kts | 127° |
| 2026-05-04 01:26 | 36.69186 | 63.44451 | 35082 ft | 534 kts | 127° |
| 2026-05-04 01:27 | 36.64676 | 63.51802 | 35080 ft | 534 kts | 127° |
| 2026-05-04 01:27 | 36.60197 | 63.59088 | 35085 ft | 533 kts | 127° |
| 2026-05-04 01:28 | 36.55685 | 63.66411 | 35085 ft | 533 kts | 127° |
| 2026-05-04 01:28 | 36.51160 | 63.73739 | 35086 ft | 536 kts | 127° |
| 2026-05-04 01:29 | 36.46614 | 63.81085 | 35086 ft | 535 kts | 127° |
| 2026-05-04 01:29 | 36.42083 | 63.88391 | 35086 ft | 533 kts | 127° |
| 2026-05-04 01:30 | 36.37551 | 63.95685 | 35073 ft | 533 kts | 127° |
| 2026-05-04 01:30 | 36.33000 | 64.02991 | 35083 ft | 537 kts | 128° |
| 2026-05-04 01:31 | 36.28431 | 64.10313 | 35086 ft | 536 kts | 128° |
| 2026-05-04 01:31 | 36.23876 | 64.17594 | 35085 ft | 534 kts | 128° |
| 2026-05-04 01:32 | 36.19328 | 64.24851 | 35090 ft | 535 kts | 128° |
| 2026-05-04 01:32 | 36.17042 | 64.28493 | 35282 ft | 534 kts | 128° |
| 2026-05-04 01:32 | 36.14781 | 64.32129 | 35516 ft | 532 kts | 127° |
| 2026-05-04 01:32 | 36.12577 | 64.35803 | 35688 ft | 532 kts | 126° |
| 2026-05-04 01:33 | 36.10400 | 64.39505 | 35906 ft | 531 kts | 126° |
| 2026-05-04 01:33 | 36.08235 | 64.43201 | 36088 ft | 531 kts | 126° |
| 2026-05-04 01:33 | 36.06091 | 64.46851 | 36202 ft | 532 kts | 126° |
| 2026-05-04 01:33 | 36.03910 | 64.50545 | 36327 ft | 533 kts | 126° |
| 2026-05-04 01:34 | 36.01721 | 64.54235 | 36457 ft | 533 kts | 126° |
| 2026-05-04 01:34 | 35.99522 | 64.57927 | 36571 ft | 533 kts | 126° |
| 2026-05-04 01:34 | 35.97319 | 64.61616 | 36675 ft | 534 kts | 126° |
| 2026-05-04 01:34 | 35.95111 | 64.65306 | 36815 ft | 534 kts | 126° |
| 2026-05-04 01:35 | 35.92901 | 64.68996 | 36923 ft | 535 kts | 126° |
| 2026-05-04 01:35 | 35.90688 | 64.72687 | 37040 ft | 535 kts | 126° |
| 2026-05-04 01:35 | 35.88471 | 64.76379 | 37084 ft | 537 kts | 126° |
| 2026-05-04 01:36 | 35.84001 | 64.83817 | 37093 ft | 542 kts | 126° |
| 2026-05-04 01:36 | 35.79496 | 64.91297 | 37096 ft | 543 kts | 126° |
| 2026-05-04 01:37 | 35.74988 | 64.98763 | 37121 ft | 543 kts | 126° |
| 2026-05-04 01:37 | 35.70487 | 65.06208 | 37097 ft | 542 kts | 127° |
| 2026-05-04 01:38 | 35.65975 | 65.13653 | 37107 ft | 544 kts | 126° |
| 2026-05-04 01:38 | 35.61451 | 65.21099 | 37108 ft | 544 kts | 127° |
| 2026-05-04 01:39 | 35.56920 | 65.28541 | 37114 ft | 543 kts | 127° |
| 2026-05-04 01:39 | 35.52390 | 65.35961 | 37114 ft | 543 kts | 127° |
| 2026-05-04 01:40 | 35.47849 | 65.43384 | 37125 ft | 544 kts | 127° |
| 2026-05-04 01:40 | 35.43307 | 65.50806 | 37134 ft | 544 kts | 127° |
| 2026-05-04 01:41 | 35.38763 | 65.58218 | 37135 ft | 543 kts | 127° |
| 2026-05-04 01:41 | 35.34209 | 65.65617 | 37142 ft | 544 kts | 127° |
| 2026-05-04 01:42 | 35.29646 | 65.73015 | 37135 ft | 544 kts | 127° |
| 2026-05-04 01:42 | 35.25079 | 65.80407 | 37151 ft | 544 kts | 127° |
| 2026-05-04 01:43 | 35.20505 | 65.87790 | 37134 ft | 544 kts | 127° |
| 2026-05-04 01:43 | 35.15923 | 65.95170 | 37163 ft | 546 kts | 127° |
| 2026-05-04 01:44 | 35.11339 | 66.02541 | 37166 ft | 544 kts | 127° |
| 2026-05-04 01:44 | 35.06751 | 66.09903 | 37159 ft | 545 kts | 127° |
| 2026-05-04 01:45 | 35.02154 | 66.17249 | 37164 ft | 544 kts | 127° |
| 2026-05-04 01:45 | 34.95234 | 66.28306 | 37186 ft | 547 kts | 127° |
| 2026-05-04 01:46 | 34.90632 | 66.35583 | 37181 ft | 545 kts | 128° |
| 2026-05-04 01:46 | 34.85981 | 66.42882 | 37164 ft | 546 kts | 128° |
| 2026-05-04 01:47 | 34.81321 | 66.50180 | 37188 ft | 546 kts | 128° |
| 2026-05-04 01:47 | 34.76660 | 66.57485 | 37204 ft | 546 kts | 128° |
| 2026-05-04 01:48 | 34.72000 | 66.64761 | 37200 ft | 544 kts | 128° |
| 2026-05-04 01:48 | 34.67345 | 66.72011 | 37181 ft | 544 kts | 128° |
| 2026-05-04 01:49 | 34.62692 | 66.79261 | 37190 ft | 544 kts | 128° |
| 2026-05-04 01:49 | 34.58016 | 66.86509 | 37185 ft | 545 kts | 128° |
| 2026-05-04 01:50 | 34.53341 | 66.93758 | 37186 ft | 545 kts | 128° |
| 2026-05-04 01:50 | 34.48682 | 67.00980 | 37168 ft | 543 kts | 128° |
| 2026-05-04 01:51 | 34.43998 | 67.08198 | 37176 ft | 546 kts | 128° |
| 2026-05-04 01:51 | 34.39288 | 67.15435 | 37161 ft | 547 kts | 128° |
| 2026-05-04 01:52 | 34.35371 | 67.21449 | 37158 ft | 547 kts | 128° |
| 2026-05-04 01:52 | 34.30661 | 67.28665 | 37155 ft | 546 kts | 128° |
| 2026-05-04 01:53 | 34.25950 | 67.35869 | 37151 ft | 546 kts | 128° |
| 2026-05-04 01:53 | 34.21238 | 67.43060 | 37151 ft | 545 kts | 128° |
| 2026-05-04 01:54 | 34.16526 | 67.50238 | 37149 ft | 546 kts | 128° |
| 2026-05-04 01:54 | 34.11802 | 67.57425 | 37144 ft | 547 kts | 129° |
| 2026-05-04 01:55 | 34.07069 | 67.64606 | 37154 ft | 547 kts | 129° |
| 2026-05-04 01:55 | 34.02332 | 67.71775 | 37136 ft | 547 kts | 129° |
| 2026-05-04 01:56 | 33.97587 | 67.78946 | 37138 ft | 547 kts | 129° |
| 2026-05-04 01:56 | 33.92816 | 67.86075 | 37118 ft | 547 kts | 129° |
| 2026-05-04 01:57 | 33.88006 | 67.93184 | 37113 ft | 548 kts | 129° |
| 2026-05-04 01:57 | 33.83194 | 68.00291 | 37099 ft | 548 kts | 129° |
| 2026-05-04 01:58 | 33.78385 | 68.07394 | 37089 ft | 548 kts | 129° |
| 2026-05-04 01:58 | 33.73618 | 68.14444 | 37078 ft | 548 kts | 129° |
| 2026-05-04 01:59 | 33.68784 | 68.21552 | 37074 ft | 552 kts | 129° |
| 2026-05-04 01:59 | 33.63929 | 68.28673 | 37043 ft | 550 kts | 130° |
| 2026-05-04 02:00 | 33.59081 | 68.35771 | 37016 ft | 550 kts | 129° |
| 2026-05-04 02:00 | 33.54228 | 68.42875 | 37013 ft | 551 kts | 129° |
| 2026-05-04 02:01 | 33.49275 | 68.49913 | 36992 ft | 554 kts | 131° |
| 2026-05-04 02:01 | 33.44247 | 68.56899 | 36990 ft | 551 kts | 131° |
| 2026-05-04 02:02 | 33.39268 | 68.63824 | 36989 ft | 547 kts | 131° |
| 2026-05-04 02:02 | 33.34317 | 68.70728 | 36974 ft | 547 kts | 131° |
| 2026-05-04 02:03 | 33.29363 | 68.77634 | 36984 ft | 547 kts | 131° |
| 2026-05-04 02:03 | 33.24493 | 68.84622 | 36982 ft | 547 kts | 128° |
| 2026-05-04 02:04 | 33.19902 | 68.91860 | 36985 ft | 545 kts | 127° |
| 2026-05-04 02:04 | 33.15352 | 68.99086 | 36963 ft | 544 kts | 127° |
| 2026-05-04 02:05 | 33.10746 | 69.06280 | 36985 ft | 547 kts | 128° |
| 2026-05-04 02:05 | 33.06093 | 69.13471 | 36977 ft | 548 kts | 128° |
| 2026-05-04 02:06 | 33.01429 | 69.20656 | 36982 ft | 548 kts | 128° |
| 2026-05-04 02:06 | 32.96786 | 69.27799 | 36961 ft | 543 kts | 128° |
| 2026-05-04 02:07 | 32.92197 | 69.34852 | 36953 ft | 544 kts | 128° |
| 2026-05-04 02:07 | 32.87552 | 69.41972 | 36934 ft | 545 kts | 128° |
| 2026-05-04 02:08 | 32.82900 | 69.49084 | 36934 ft | 545 kts | 128° |
| 2026-05-04 02:08 | 32.78231 | 69.56188 | 36919 ft | 543 kts | 128° |
| 2026-05-04 02:09 | 32.73590 | 69.63219 | 36927 ft | 539 kts | 128° |
| 2026-05-04 02:09 | 32.68958 | 69.70229 | 36904 ft | 539 kts | 128° |
| 2026-05-04 02:10 | 32.64326 | 69.77235 | 36917 ft | 539 kts | 128° |
| 2026-05-04 02:10 | 32.59689 | 69.84232 | 36904 ft | 540 kts | 128° |
| 2026-05-04 02:11 | 32.55046 | 69.91230 | 36887 ft | 539 kts | 129° |
| 2026-05-04 02:11 | 32.50412 | 69.98214 | 36894 ft | 540 kts | 129° |
| 2026-05-04 02:12 | 32.45759 | 70.05206 | 36885 ft | 540 kts | 129° |
| 2026-05-04 02:12 | 32.41674 | 70.12627 | 36866 ft | 539 kts | 111° |
| 2026-05-04 02:13 | 32.40595 | 70.16853 | 36869 ft | 536 kts | 97° |
| 2026-05-04 02:13 | 32.40354 | 70.21221 | 36845 ft | 531 kts | 84° |
| 2026-05-04 02:13 | 32.40970 | 70.25493 | 36846 ft | 525 kts | 69° |
| 2026-05-04 02:13 | 32.42359 | 70.29384 | 36855 ft | 518 kts | 56° |
| 2026-05-04 02:14 | 32.44445 | 70.32803 | 36855 ft | 509 kts | 42° |
| 2026-05-04 02:14 | 32.47073 | 70.35548 | 36839 ft | 500 kts | 29° |
| 2026-05-04 02:14 | 32.50085 | 70.37523 | 36841 ft | 492 kts | 17° |
| 2026-05-04 02:14 | 32.53327 | 70.38679 | 36839 ft | 483 kts | 5° |
| 2026-05-04 02:15 | 32.56641 | 70.39004 | 36841 ft | 475 kts | 353° |
| 2026-05-04 02:15 | 32.59892 | 70.38526 | 36843 ft | 468 kts | 342° |
| 2026-05-04 02:15 | 32.66253 | 70.36847 | 36852 ft | 473 kts | 349° |
| 2026-05-04 02:16 | 32.72902 | 70.37063 | 36844 ft | 487 kts | 7° |
| 2026-05-04 02:16 | 32.79283 | 70.39950 | 36848 ft | 500 kts | 27° |
| 2026-05-04 02:17 | 32.82109 | 70.42391 | 36849 ft | 506 kts | 38° |
| 2026-05-04 02:17 | 32.84563 | 70.45415 | 36852 ft | 512 kts | 47° |
| 2026-05-04 02:17 | 32.88943 | 70.52129 | 36837 ft | 515 kts | 50° |
| 2026-05-04 02:18 | 32.93484 | 70.58692 | 36853 ft | 513 kts | 40° |
| 2026-05-04 02:18 | 32.99129 | 70.63845 | 36839 ft | 512 kts | 30° |
| 2026-05-04 02:19 | 33.05149 | 70.68384 | 36839 ft | 512 kts | 28° |
| 2026-05-04 02:19 | 33.11227 | 70.72797 | 36842 ft | 511 kts | 28° |
| 2026-05-04 02:20 | 33.17290 | 70.77237 | 36841 ft | 511 kts | 28° |
| 2026-05-04 02:20 | 33.23337 | 70.81718 | 36857 ft | 511 kts | 28° |
| 2026-05-04 02:21 | 33.29373 | 70.86214 | 36850 ft | 511 kts | 28° |
| 2026-05-04 02:21 | 33.35408 | 70.90717 | 36859 ft | 512 kts | 29° |
| 2026-05-04 02:22 | 33.41382 | 70.95414 | 36858 ft | 517 kts | 36° |
| 2026-05-04 02:22 | 33.46245 | 71.01761 | 36861 ft | 522 kts | 56° |
| 2026-05-04 02:23 | 33.47932 | 71.05610 | 36858 ft | 524 kts | 67° |
| 2026-05-04 02:23 | 33.49003 | 71.09717 | 36859 ft | 525 kts | 78° |
| 2026-05-04 02:23 | 33.49927 | 71.18453 | 36849 ft | 526 kts | 85° |
| 2026-05-04 02:24 | 33.50410 | 71.27206 | 36847 ft | 527 kts | 86° |
| 2026-05-04 02:24 | 33.50868 | 71.35906 | 36837 ft | 527 kts | 86° |
| 2026-05-04 02:25 | 33.51380 | 71.44663 | 36834 ft | 527 kts | 86° |
| 2026-05-04 02:25 | 33.51916 | 71.53415 | 36834 ft | 527 kts | 86° |
| 2026-05-04 02:26 | 33.52450 | 71.62161 | 36826 ft | 525 kts | 86° |
| 2026-05-04 02:26 | 33.52974 | 71.70884 | 36818 ft | 524 kts | 86° |
| 2026-05-04 02:27 | 33.53489 | 71.79596 | 36818 ft | 524 kts | 86° |
| 2026-05-04 02:27 | 33.53983 | 71.88308 | 36810 ft | 524 kts | 88° |
| 2026-05-04 02:28 | 33.54108 | 71.97027 | 36812 ft | 522 kts | 91° |
| 2026-05-04 02:28 | 33.54082 | 72.05706 | 36805 ft | 520 kts | 91° |
| 2026-05-04 02:29 | 33.54097 | 72.14376 | 36805 ft | 520 kts | 91° |
| 2026-05-04 02:29 | 33.54150 | 72.23049 | 36805 ft | 520 kts | 91° |
| 2026-05-04 02:30 | 33.54211 | 72.31657 | 36801 ft | 519 kts | 91° |
| 2026-05-04 02:30 | 33.54266 | 72.40292 | 36802 ft | 518 kts | 91° |
| 2026-05-04 02:31 | 33.54312 | 72.48917 | 36801 ft | 517 kts | 91° |
| 2026-05-04 02:31 | 33.54351 | 72.57541 | 36800 ft | 517 kts | 91° |
| 2026-05-04 02:32 | 33.54385 | 72.66166 | 36801 ft | 518 kts | 91° |
| 2026-05-04 02:32 | 33.54081 | 72.74767 | 36802 ft | 515 kts | 102° |
| 2026-05-04 02:33 | 33.51866 | 72.82803 | 36787 ft | 505 kts | 122° |
| 2026-05-04 02:33 | 33.47613 | 72.89338 | 36802 ft | 494 kts | 142° |
| 2026-05-04 02:34 | 33.41891 | 72.93677 | 36799 ft | 484 kts | 161° |
| 2026-05-04 02:34 | 33.35508 | 72.96142 | 36797 ft | 483 kts | 163° |
| 2026-05-04 02:35 | 33.29237 | 72.99051 | 36799 ft | 483 kts | 161° |
| 2026-05-04 02:35 | 33.23041 | 73.02213 | 36796 ft | 485 kts | 159° |
| 2026-05-04 02:36 | 33.16875 | 73.05475 | 36795 ft | 485 kts | 159° |
| 2026-05-04 02:36 | 33.10705 | 73.08748 | 36793 ft | 485 kts | 159° |
| 2026-05-04 02:37 | 33.04532 | 73.12005 | 36766 ft | 485 kts | 159° |
| 2026-05-04 02:37 | 32.98364 | 73.15247 | 36788 ft | 484 kts | 159° |
| 2026-05-04 02:38 | 32.92204 | 73.18477 | 36777 ft | 484 kts | 159° |
| 2026-05-04 02:38 | 32.86042 | 73.21704 | 36781 ft | 484 kts | 159° |
| 2026-05-04 02:39 | 32.79887 | 73.24934 | 36778 ft | 484 kts | 158° |
| 2026-05-04 02:39 | 32.74073 | 73.29036 | 36766 ft | 489 kts | 148° |
| 2026-05-04 02:40 | 32.68655 | 73.33817 | 36764 ft | 487 kts | 146° |
| 2026-05-04 02:40 | 32.63333 | 73.38734 | 36775 ft | 484 kts | 146° |
| 2026-05-04 02:41 | 32.58019 | 73.43633 | 36761 ft | 484 kts | 146° |
| 2026-05-04 02:41 | 32.52709 | 73.48486 | 36764 ft | 480 kts | 146° |
| 2026-05-04 02:42 | 32.47411 | 73.53302 | 36779 ft | 480 kts | 146° |
| 2026-05-04 02:42 | 32.42115 | 73.58107 | 36779 ft | 480 kts | 146° |
| 2026-05-04 02:43 | 32.37679 | 73.62127 | 36774 ft | 480 kts | 146° |
| 2026-05-04 02:43 | 32.32420 | 73.66888 | 36777 ft | 478 kts | 146° |
| 2026-05-04 02:44 | 32.27171 | 73.71637 | 36779 ft | 473 kts | 146° |
| 2026-05-04 02:44 | 32.21952 | 73.76347 | 36779 ft | 472 kts | 147° |
| 2026-05-04 02:45 | 32.16733 | 73.81049 | 36779 ft | 472 kts | 147° |
| 2026-05-04 02:45 | 32.11513 | 73.85745 | 36790 ft | 472 kts | 147° |
| 2026-05-04 02:46 | 32.06296 | 73.90434 | 36784 ft | 471 kts | 147° |
| 2026-05-04 02:46 | 32.01084 | 73.95111 | 36788 ft | 471 kts | 147° |
| 2026-05-04 02:47 | 31.95872 | 73.99781 | 36786 ft | 471 kts | 147° |
| 2026-05-04 02:47 | 31.90660 | 74.04444 | 36783 ft | 471 kts | 147° |
| 2026-05-04 02:48 | 31.85440 | 74.09107 | 36773 ft | 471 kts | 147° |
| 2026-05-04 02:48 | 31.80248 | 74.13820 | 36780 ft | 471 kts | 146° |
| 2026-05-04 02:49 | 31.75108 | 74.18606 | 36789 ft | 472 kts | 146° |
| 2026-05-04 02:49 | 31.69962 | 74.23389 | 36792 ft | 471 kts | 146° |
| 2026-05-04 02:50 | 31.64808 | 74.28153 | 36789 ft | 471 kts | 146° |
| 2026-05-04 02:50 | 31.59636 | 74.32915 | 36807 ft | 475 kts | 146° |
| 2026-05-04 02:51 | 31.54401 | 74.37726 | 36798 ft | 480 kts | 146° |
| 2026-05-04 02:51 | 31.49236 | 74.42512 | 36800 ft | 474 kts | 145° |
| 2026-05-04 02:52 | 31.44141 | 74.47414 | 36804 ft | 474 kts | 144° |
| 2026-05-04 02:52 | 31.39091 | 74.52375 | 36791 ft | 476 kts | 141° |
| 2026-05-04 02:53 | 31.34866 | 74.58420 | 36813 ft | 487 kts | 125° |
| 2026-05-04 02:53 | 31.32228 | 74.65803 | 36820 ft | 497 kts | 112° |
| 2026-05-04 02:54 | 31.30282 | 74.73581 | 36826 ft | 499 kts | 110° |
| 2026-05-04 02:54 | 31.28433 | 74.81405 | 36826 ft | 499 kts | 110° |
| 2026-05-04 02:55 | 31.25572 | 74.93095 | 36823 ft | 498 kts | 111° |
| 2026-05-04 02:56 | 31.23625 | 75.00868 | 36828 ft | 498 kts | 111° |
| 2026-05-04 02:56 | 31.21669 | 75.08635 | 36816 ft | 499 kts | 111° |
| 2026-05-04 02:57 | 31.19693 | 75.16458 | 36801 ft | 505 kts | 109° |
| 2026-05-04 02:57 | 31.17695 | 75.24367 | 36810 ft | 511 kts | 109° |
| 2026-05-04 02:58 | 31.15666 | 75.32379 | 36809 ft | 518 kts | 109° |
| 2026-05-04 02:58 | 31.13612 | 75.40467 | 36800 ft | 520 kts | 109° |
| 2026-05-04 02:59 | 31.11549 | 75.48572 | 36799 ft | 522 kts | 109° |
| 2026-05-04 02:59 | 31.09131 | 75.56563 | 36795 ft | 522 kts | 115° |
| 2026-05-04 03:00 | 31.06380 | 75.64405 | 36795 ft | 522 kts | 115° |
| 2026-05-04 03:00 | 31.03658 | 75.72253 | 36793 ft | 522 kts | 115° |
| 2026-05-04 03:01 | 31.00995 | 75.80135 | 36795 ft | 522 kts | 115° |
| 2026-05-04 03:01 | 30.98378 | 75.87957 | 36794 ft | 514 kts | 115° |
| 2026-05-04 03:02 | 30.95784 | 75.95698 | 36800 ft | 512 kts | 115° |
| 2026-05-04 03:02 | 30.93199 | 76.03379 | 36800 ft | 512 kts | 115° |
| 2026-05-04 03:03 | 30.90592 | 76.11100 | 36807 ft | 512 kts | 115° |
| 2026-05-04 03:03 | 30.87983 | 76.18818 | 36806 ft | 512 kts | 117° |
| 2026-05-04 03:04 | 30.85373 | 76.26518 | 36815 ft | 511 kts | 117° |
| 2026-05-04 03:04 | 30.82760 | 76.34206 | 36816 ft | 511 kts | 117° |
| 2026-05-04 03:05 | 30.80142 | 76.41891 | 36786 ft | 511 kts | 117° |
| 2026-05-04 03:05 | 30.77519 | 76.49572 | 36843 ft | 512 kts | 117° |
| 2026-05-04 03:06 | 30.74888 | 76.57264 | 36863 ft | 512 kts | 117° |
| 2026-05-04 03:06 | 30.72257 | 76.64941 | 36877 ft | 511 kts | 118° |
| 2026-05-04 03:07 | 30.69612 | 76.72608 | 36881 ft | 510 kts | 119° |
| 2026-05-04 03:07 | 30.66187 | 76.79691 | 36883 ft | 499 kts | 131° |
| 2026-05-04 03:08 | 30.62133 | 76.86192 | 36884 ft | 496 kts | 134° |
| 2026-05-04 03:08 | 30.57947 | 76.92545 | 36852 ft | 494 kts | 134° |
| 2026-05-04 03:09 | 30.53768 | 76.98868 | 36867 ft | 494 kts | 134° |
| 2026-05-04 03:09 | 30.49603 | 77.05207 | 36865 ft | 494 kts | 134° |
| 2026-05-04 03:10 | 30.45449 | 77.11547 | 36881 ft | 494 kts | 134° |
| 2026-05-04 03:10 | 30.41135 | 77.17615 | 36882 ft | 486 kts | 142° |
| 2026-05-04 03:11 | 30.35852 | 77.22235 | 36882 ft | 471 kts | 156° |
| 2026-05-04 03:11 | 30.30102 | 77.25803 | 36883 ft | 468 kts | 160° |
| 2026-05-04 03:12 | 30.24264 | 77.29133 | 36883 ft | 468 kts | 160° |
| 2026-05-04 03:12 | 30.18424 | 77.32467 | 36875 ft | 468 kts | 160° |
| 2026-05-04 03:13 | 30.12595 | 77.35838 | 36874 ft | 468 kts | 160° |
| 2026-05-04 03:13 | 30.06776 | 77.39221 | 36872 ft | 468 kts | 160° |
| 2026-05-04 03:14 | 30.00956 | 77.42638 | 36879 ft | 471 kts | 158° |
| 2026-05-04 03:14 | 29.95451 | 77.46883 | 36881 ft | 479 kts | 150° |
| 2026-05-04 03:15 | 29.90149 | 77.51569 | 36880 ft | 481 kts | 149° |
| 2026-05-04 03:15 | 29.84891 | 77.56342 | 36889 ft | 481 kts | 149° |
| 2026-05-04 03:16 | 29.79632 | 77.61094 | 36874 ft | 480 kts | 149° |
| 2026-05-04 03:16 | 29.74398 | 77.65793 | 36897 ft | 475 kts | 149° |
| 2026-05-04 03:17 | 29.69192 | 77.70445 | 36886 ft | 474 kts | 149° |
| 2026-05-04 03:17 | 29.63981 | 77.75090 | 36887 ft | 474 kts | 149° |
| 2026-05-04 03:18 | 29.58805 | 77.79701 | 36900 ft | 474 kts | 149° |
| 2026-05-04 03:18 | 29.53593 | 77.84340 | 36897 ft | 474 kts | 149° |
| 2026-05-04 03:19 | 29.48383 | 77.88971 | 36904 ft | 474 kts | 149° |
| 2026-05-04 03:19 | 29.43176 | 77.93596 | 36902 ft | 473 kts | 149° |
| 2026-05-04 03:20 | 29.37961 | 77.98218 | 36922 ft | 475 kts | 149° |
| 2026-05-04 03:20 | 29.32710 | 78.02864 | 36924 ft | 478 kts | 149° |
| 2026-05-04 03:21 | 29.27448 | 78.07518 | 36925 ft | 478 kts | 149° |
| 2026-05-04 03:21 | 29.22194 | 78.12160 | 36938 ft | 476 kts | 149° |
| 2026-05-04 03:22 | 29.16949 | 78.16787 | 36944 ft | 476 kts | 149° |
| 2026-05-04 03:22 | 29.11701 | 78.21409 | 36944 ft | 476 kts | 149° |
| 2026-05-04 03:23 | 29.06455 | 78.26023 | 36953 ft | 476 kts | 149° |
| 2026-05-04 03:23 | 29.01207 | 78.30631 | 36938 ft | 475 kts | 148° |
| 2026-05-04 03:24 | 28.96014 | 78.35188 | 36952 ft | 467 kts | 148° |
| 2026-05-04 03:24 | 28.90874 | 78.39695 | 36948 ft | 466 kts | 148° |
| 2026-05-04 03:25 | 28.85733 | 78.44191 | 36955 ft | 466 kts | 148° |
| 2026-05-04 03:25 | 28.80585 | 78.48688 | 36956 ft | 466 kts | 148° |
| 2026-05-04 03:26 | 28.75438 | 78.53180 | 36842 ft | 466 kts | 147° |
| 2026-05-04 03:26 | 28.70273 | 78.57681 | 36951 ft | 471 kts | 146° |
| 2026-05-04 03:27 | 28.65025 | 78.62246 | 36937 ft | 479 kts | 146° |
| 2026-05-04 03:27 | 28.59755 | 78.66828 | 36938 ft | 480 kts | 146° |
| 2026-05-04 03:28 | 28.54457 | 78.71434 | 36931 ft | 480 kts | 146° |
| 2026-05-04 03:28 | 28.49138 | 78.76048 | 36937 ft | 481 kts | 147° |
| 2026-05-04 03:29 | 28.44102 | 78.81130 | 36925 ft | 489 kts | 140° |
| 2026-05-04 03:29 | 28.39222 | 78.86607 | 36937 ft | 496 kts | 139° |
| 2026-05-04 03:30 | 28.34366 | 78.92184 | 36932 ft | 496 kts | 138° |
| 2026-05-04 03:30 | 28.29510 | 78.97748 | 36916 ft | 495 kts | 139° |
| 2026-05-04 03:31 | 28.24647 | 79.03289 | 36911 ft | 495 kts | 139° |
| 2026-05-04 03:31 | 28.19779 | 79.08819 | 36903 ft | 495 kts | 140° |
| 2026-05-04 03:32 | 28.14929 | 79.14319 | 36909 ft | 492 kts | 140° |
| 2026-05-04 03:32 | 28.10907 | 79.18874 | 36903 ft | 492 kts | 140° |
| 2026-05-04 03:33 | 28.06069 | 79.24345 | 36903 ft | 492 kts | 140° |
| 2026-05-04 03:33 | 28.01227 | 79.29816 | 36908 ft | 492 kts | 140° |
| 2026-05-04 03:34 | 27.96381 | 79.35283 | 36906 ft | 492 kts | 140° |
| 2026-05-04 03:34 | 27.91532 | 79.40747 | 36906 ft | 492 kts | 140° |
| 2026-05-04 03:35 | 27.86690 | 79.46196 | 36911 ft | 489 kts | 141° |
| 2026-05-04 03:35 | 27.81894 | 79.51590 | 36915 ft | 485 kts | 141° |
| 2026-05-04 03:36 | 27.77109 | 79.56958 | 36909 ft | 485 kts | 141° |
| 2026-05-04 03:36 | 27.72322 | 79.62321 | 36920 ft | 485 kts | 141° |
| 2026-05-04 03:37 | 27.67705 | 79.67907 | 36899 ft | 488 kts | 135° |
| 2026-05-04 03:37 | 27.63289 | 79.73735 | 36923 ft | 489 kts | 134° |
| 2026-05-04 03:38 | 27.58916 | 79.79618 | 36907 ft | 489 kts | 134° |
| 2026-05-04 03:38 | 27.54543 | 79.85495 | 36920 ft | 489 kts | 134° |
| 2026-05-04 03:39 | 27.50161 | 79.91359 | 36919 ft | 489 kts | 134° |
| 2026-05-04 03:39 | 27.45772 | 79.97215 | 36914 ft | 489 kts | 134° |
| 2026-05-04 03:40 | 27.41384 | 80.03060 | 36896 ft | 489 kts | 134° |
| 2026-05-04 03:40 | 27.36969 | 80.08929 | 36910 ft | 495 kts | 133° |
| 2026-05-04 03:41 | 27.32509 | 80.14854 | 36911 ft | 497 kts | 133° |
| 2026-05-04 03:41 | 27.28035 | 80.20792 | 36898 ft | 500 kts | 135° |
| 2026-05-04 03:42 | 27.23501 | 80.26795 | 36887 ft | 507 kts | 135° |
| 2026-05-04 03:42 | 27.18921 | 80.32858 | 36886 ft | 509 kts | 135° |
| 2026-05-04 03:43 | 27.14347 | 80.38906 | 36814 ft | 508 kts | 135° |
| 2026-05-04 03:43 | 27.09754 | 80.44967 | 36875 ft | 513 kts | 134° |
| 2026-05-04 03:44 | 27.05098 | 80.51099 | 36875 ft | 518 kts | 134° |
| 2026-05-04 03:44 | 27.00435 | 80.57239 | 36880 ft | 517 kts | 135° |
| 2026-05-04 03:45 | 26.95763 | 80.63380 | 36886 ft | 518 kts | 135° |
| 2026-05-04 03:45 | 26.91079 | 80.69526 | 36901 ft | 518 kts | 135° |
| 2026-05-04 03:46 | 26.86429 | 80.75619 | 36865 ft | 518 kts | 135° |
| 2026-05-04 03:46 | 26.81716 | 80.81782 | 36942 ft | 525 kts | 135° |
| 2026-05-04 03:47 | 26.76935 | 80.88025 | 36935 ft | 530 kts | 135° |
| 2026-05-04 03:47 | 26.72292 | 80.94448 | 36942 ft | 533 kts | 131° |
| 2026-05-04 03:47 | 26.70125 | 80.97830 | 36839 ft | 536 kts | 130° |
| 2026-05-04 03:48 | 26.67990 | 81.01244 | 36835 ft | 536 kts | 129° |
| 2026-05-04 03:48 | 26.63693 | 81.08061 | 36832 ft | 536 kts | 130° |
| 2026-05-04 03:49 | 26.59335 | 81.14817 | 36793 ft | 536 kts | 131° |